Buhl, Alabama
Current Conditions -  °F | °C
As of 7:53 AM on Sunday 23 Nov 2014 (Local Time) from KTCL Reporting Station
Overcast Overcast  
Wind Chill: 61°   Ceiling: 800
Heat Index: 61°   Visibility: 5mi
Dew Point: 58°   Wind: 7mph
Humidity: 90%   Direction: 130°SE
Pressure: 29.82"   Gusts: NA
Location:  33.26°N, 87.75°W
Report Text: KTCL 231353Z 13006KT 5SM OVC008 16/14 A2982 RMK AO2 SLP095 T01610144
Loading
Personal Weather Stations






























Interactive Weather Map New forecast layout! Learn more

10-Day Weather Forecast

Advertisements
Track Severe Weather on mobile